Terminal Aerodrome Forecast
Issued by NWS Charleston, WV

Home | Current Version | Previous Version | Text Only | Print | Product List | Glossary On
Versions: 1 2 3 4 5 6 7 8 9 10 11 12 13 14 15 16 17 18 19 20 21 22 23 24 25 26 27 28 29 30 31
000
FTUS41 KRLX 221132
TAFBKW
TAF
KBKW 221132Z 2212/2312 09003KT 6SM BR SKC
      TEMPO 2212/2213 5SM BR
     FM221300 03004KT P6SM SCT040
     FM230000 14002KT P6SM SKC
     FM230900 00000KT 2SM BR FEW001=

USA.gov is the U.S. government's official web portal to all federal, state and local government web resources and services.